Ustick, Illinois
Current Conditions -  °F | °C
As of 8:15 PM on Saturday 25 Oct 2014 (Local Time) from KSQI Reporting Station
Clear Clear  
Wind Chill: 50°   Ceiling: Unl
Heat Index: 50°   Visibility: 10mi
Dew Point: 34°   Wind: 7mph
Humidity: 54%   Direction: 310°NW
Pressure: 30"   Gusts: NA
Location:  41.8285°N, 89.9656°W
Report Text: KSQI 260115Z AUTO 31006KT 10SM CLR 10/01 A3000 RMK AO1
Loading
Personal Weather Stations






























Interactive Weather Map
Tropical Storm Tracking
New forecast layout! Learn more

10-Day Weather Forecast

Advertisements
Track Severe Weather on mobile